Edward Brusco — WDC3064 — position and weather

sailwx.info

Track history (hours):
 
Tides and Currents Weather Stations Pressure Air Temp Water Temp Dewpoint Dewpoint Depression Visibility Wind Speed Wind Dir Waves Ship Positions

Edward Brusco

Owner: Brusco Tug & Barge, Inc., Longview, WA. More information available from US FCC via Universal Licensing System and Coast Guard Vessel Documentation Center.

Last reported at 2017-Dec-11 17:00 UTC. Time now 2017-Dec-14 00:18 UTC.
Position N 46°35' W 124°16'.

Length 37 m; draft 10.6 m.

Type: Tow > 200 m length. MMSI: 367002170.

Date/timePositionNaut miles runAvg speedWind from/ knotsBaromVisibWave heightAir tempDewpointWater temp
2017-Dec-11 17:00N 46°35' W 124°16'510.8
2017-Dec-11 16:31N 46°29' W 124°15'510.6
2017-Dec-11 16:01N 46°24' W 124°13'510.3
2017-Dec-11 15:31N 46°19' W 124°12'510.0
2017-Dec-11 15:01N 46°14' W 124°10'5 9.5
2017-Dec-11 14:30N 46°15' W 124°03'4 7.1
2017-Dec-11 14:01N 46°14' W 123°59'3 6.5
2017-Dec-11 13:30N 46°12' W 123°55'3 6.6
2017-Dec-11 13:00N 46°12' W 123°50'4 7.1
2017-Dec-11 12:31N 46°13' W 123°46'3 6.8
2017-Dec-11 12:01N 46°15' W 123°42'4 7.2
2017-Dec-11 11:30N 46°15' W 123°36'4 7.4
2017-Dec-11 11:01N 46°16' W 123°31'4 7.6
2017-Dec-11 10:30N 46°15' W 123°26'4 8.7
2017-Dec-11 10:00N 46°10' W 123°25'4 8.6
2017-Dec-11 09:31N 46°09' W 123°19'5 9.5
2017-Dec-11 09:00N 46°10' W 123°13'5 8.6
2017-Dec-11 08:26N 46°10' W 123°06'4 9.3
2017-Dec-11 08:01N 46°08' W 123°01'2 4.3
2017-Dec-11 07:30N 46°07' W 122°58'0 0.1
2017-Dec-11 07:00N 46°07' W 122°58'2 5.0
2017-Dec-11 06:30N 46°05' W 122°56'0 0.1
2017-Dec-11 06:00N 46°05' W 122°56'2 3.2
2017-Dec-11 05:30N 46°06' W 122°58'4 7.3
2017-Dec-11 05:00N 46°08' W 123°02'4 7.2
2017-Dec-11 04:31N 46°10' W 123°06'3 6.9
2017-Dec-11 04:00N 46°11' W 123°11'4 7.5
2017-Dec-11 03:30N 46°09' W 123°16'4 7.0
2017-Dec-11 03:00N 46°09' W 123°21'3 6.8
2017-Dec-11 02:30N 46°10' W 123°25'3 6.7
2017-Dec-11 02:00N 46°14' W 123°26'3 6.9
2017-Dec-11 01:30N 46°16' W 123°29'4 7.7
2017-Dec-11 01:00N 46°15' W 123°34'4 8.2
2017-Dec-11 00:28N 46°15' W 123°40'4 8.6
2017-Dec-11 00:00N 46°13' W 123°45'4 8.5
2017-Dec-10 23:30N 46°12' W 123°51'4 7.5
2017-Dec-10 23:01N 46°12' W 123°56'4 7.6
2017-Dec-10 22:30N 46°15' W 124°00'3 5.8
2017-Dec-10 22:01N 46°15' W 124°05'3 6.5
2017-Dec-10 21:30N 46°13' W 124°08'3 5.5
2017-Dec-10 21:00N 46°10' W 124°10'4 8.1
2017-Dec-10 20:30N 46°06' W 124°10'4 8.4
2017-Dec-10 20:00N 46°02' W 124°09'6 8.3
2017-Dec-10 19:15N 45°56' W 124°08'2 8.6
2017-Dec-10 19:00N 45°54' W 124°07'4 8.5
2017-Dec-10 18:30N 45°50' W 124°06'4 8.6
2017-Dec-10 18:01N 45°46' W 124°05'4 8.7
2017-Dec-10 17:30N 45°41' W 124°05'4 8.7
2017-Dec-10 17:00N 45°37' W 124°04'4 8.4
2017-Dec-10 16:30N 45°33' W 124°04'4 8.6
2017-Dec-10 16:00N 45°28' W 124°04'5 9.1
2017-Dec-10 15:30N 45°24' W 124°04'5 8.8
2017-Dec-10 14:56N 45°19' W 124°05'4 9.0
2017-Dec-10 14:30N 45°15' W 124°05'4 8.8
2017-Dec-10 14:00N 45°11' W 124°05'6 8.6
2017-Dec-10 13:22N 45°05' W 124°05'5 9.0
2017-Dec-10 12:48N 45°00' W 124°07'3 8.9
2017-Dec-10 12:27N 44°57' W 124°08'4 8.8
2017-Dec-10 11:59N 44°53' W 124°09'5 8.6
2017-Dec-10 11:27N 44°49' W 124°11'14 0.3
2017-Dec-08 17:02N 45°02' W 124°08'1 6.9
2017-Dec-08 16:51N 45°03' W 124°07'3 7.1
2017-Dec-08 16:29N 45°06' W 124°06'3 6.9
2017-Dec-08 16:00N 45°09' W 124°06'3 6.7
2017-Dec-08 15:30N 45°12' W 124°06'3 5.9
2017-Dec-08 15:00N 45°15' W 124°05'3 5.4
2017-Dec-08 14:30N 45°18' W 124°05'3 5.6
2017-Dec-08 14:00N 45°21' W 124°05'3 6.2
2017-Dec-08 13:30N 45°24' W 124°05'4 7.8
2017-Dec-08 13:00N 45°28' W 124°05'4 7.8
2017-Dec-08 12:31N 45°32' W 124°05'4 7.4
2017-Dec-08 12:01N 45°35' W 124°05'4 7.1
2017-Dec-08 11:30N 45°39' W 124°05'3 6.9
2017-Dec-08 11:01N 45°42' W 124°06'4 7.1
2017-Dec-08 10:30N 45°46' W 124°06'4 7.4
2017-Dec-08 10:00N 45°50' W 124°07'4 7.5
2017-Dec-08 09:30N 45°53' W 124°07'6 7.7
2017-Dec-08 08:46N 45°59' W 124°08'2 7.6
2017-Dec-08 08:27N 46°01' W 124°09'3 7.5
2017-Dec-08 08:01N 46°05' W 124°09'4 7.1
2017-Dec-08 07:31N 46°08' W 124°10'4 7.2
2017-Dec-08 07:01N 46°12' W 124°09'4 8.7
2017-Dec-08 06:30N 46°15' W 124°05'5 9.7
2017-Dec-08 06:01N 46°14' W 123°59'612.3
2017-Dec-08 05:30N 46°12' W 123°50'713.1
2017-Dec-08 05:00N 46°15' W 123°42'612.7
2017-Dec-08 04:31N 46°15' W 123°33'510.3
2017-Dec-08 04:00N 46°14' W 123°26'611.1
2017-Dec-08 03:30N 46°09' W 123°23'611.2
2017-Dec-08 03:00N 46°10' W 123°15'510.7
2017-Dec-08 02:30N 46°11' W 123°07'510.2
2017-Dec-08 02:00N 46°08' W 123°01'4 8.8
2017-Dec-08 01:30N 46°06' W 122°56'0 0.3
2017-Dec-08 01:00N 46°06' W 122°56'0 0.5
2017-Dec-08 00:30N 46°06' W 122°56'0 0.0
2017-Dec-08 00:00N 46°06' W 122°56'0 0.0
2017-Dec-07 23:30N 46°06' W 122°56'0 0.0
2017-Dec-07 23:00N 46°06' W 122°56'2 3.5
2017-Dec-07 22:30N 46°07' W 122°58'510.8
2017-Dec-07 22:00N 46°10' W 123°05'510.1
2017-Dec-07 21:30N 46°11' W 123°12'510.7
2017-Dec-07 21:00N 46°09' W 123°19'5 9.7
2017-Dec-07 20:30N 46°10' W 123°25'2 4.1
2017-Dec-07 20:00N 46°12' W 123°23'0 0.0
2017-Dec-07 19:30N 46°12' W 123°23'0 0.0
2017-Dec-07 18:59N 46°12' W 123°23'0 0.1
2017-Dec-07 18:30N 46°12' W 123°23'0 0.0
2017-Dec-07 17:59N 46°12' W 123°23'0 0.1
2017-Dec-07 17:26N 46°12' W 123°23'0 0.0
2017-Dec-07 17:00N 46°12' W 123°23'0 0.1
2017-Dec-07 16:30N 46°12' W 123°23'0 0.1
2017-Dec-07 16:00N 46°12' W 123°23'0 0.0
2017-Dec-07 15:27N 46°12' W 123°23'0 0.1
2017-Dec-07 14:59N 46°12' W 123°23'0 0.1
2017-Dec-07 14:29N 46°12' W 123°23'0 0.0
2017-Dec-07 13:58N 46°12' W 123°23'0 0.1
2017-Dec-07 13:28N 46°12' W 123°23'0 0.1
2017-Dec-07 12:57N 46°12' W 123°23'0 0.1
2017-Dec-07 12:29N 46°12' W 123°23'0 0.1
2017-Dec-07 11:58N 46°12' W 123°23'0 0.1
2017-Dec-07 11:25N 46°12' W 123°23'0 0.0
2017-Dec-07 11:00N 46°12' W 123°23'0 0.1
2017-Dec-07 10:30N 46°12' W 123°23'0 0.1
2017-Dec-07 10:00N 46°12' W 123°23'0 0.1
2017-Dec-07 09:30N 46°12' W 123°23'0 0.1
2017-Dec-07 09:00N 46°12' W 123°23'0 0.0
2017-Dec-07 08:28N 46°12' W 123°23'0 0.1
2017-Dec-07 07:58N 46°12' W 123°23'0 0.1
2017-Dec-07 07:28N 46°12' W 123°23'0 0.0
2017-Dec-07 06:58N 46°12' W 123°23'0 0.0
2017-Dec-07 06:28N 46°12' W 123°23'0 0.0
2017-Dec-07 05:56N 46°12' W 123°23'0 0.0
2017-Dec-07 05:28N 46°12' W 123°23'0 0.0
2017-Dec-07 04:55N 46°12' W 123°23'0 0.1
2017-Dec-07 04:27N 46°12' W 123°23'0 0.1
2017-Dec-07 04:00N 46°12' W 123°23'0 0.0
2017-Dec-07 03:24N 46°12' W 123°23'0 0.1
2017-Dec-07 02:37N 46°12' W 123°23'0 0.3
2017-Dec-07 02:28N 46°12' W 123°23'0 0.0
2017-Dec-07 01:55N 46°12' W 123°23'0 0.0
2017-Dec-07 01:28N 46°12' W 123°23'0 0.0
2017-Dec-07 00:58N 46°12' W 123°23'0 0.0
2017-Dec-07 00:30N 46°12' W 123°23'0 0.0
2017-Dec-06 23:59N 46°12' W 123°23'0 0.0
2017-Dec-06 23:30N 46°12' W 123°23'0 0.0
2017-Dec-06 22:58N 46°12' W 123°23'0 0.1
2017-Dec-06 22:23N 46°12' W 123°23'0 0.1
2017-Dec-06 21:57N 46°12' W 123°23'0 0.0
2017-Dec-06 21:27N 46°12' W 123°23'0 0.0
2017-Dec-06 21:00N 46°12' W 123°23'  
2017-Dec-04 10:23N 46°12' W 123°23'0 0.0
2017-Dec-04 09:55N 46°12' W 123°23'0 0.0
2017-Dec-04 09:28N 46°12' W 123°23'0 0.1
2017-Dec-04 08:49N 46°12' W 123°23'0 0.0
2017-Dec-04 08:28N 46°12' W 123°23'0 0.1
2017-Dec-04 07:49N 46°12' W 123°23'0 0.0
2017-Dec-04 07:26N 46°12' W 123°23'0 0.0
2017-Dec-04 06:59N 46°12' W 123°23'0 0.0
2017-Dec-04 06:28N 46°12' W 123°23'0 0.0
2017-Dec-04 05:59N 46°12' W 123°23'0 0.0
2017-Dec-04 05:30N 46°12' W 123°23'0 0.1
2017-Dec-04 04:54N 46°12' W 123°23'0 0.1
2017-Dec-04 04:28N 46°12' W 123°23'0 0.0
2017-Dec-04 04:00N 46°12' W 123°23'0 0.0
2017-Dec-04 03:30N 46°12' W 123°23'0 0.1
2017-Dec-04 02:59N 46°12' W 123°23'0 0.0
2017-Dec-04 02:30N 46°12' W 123°23'0 0.1
2017-Dec-04 02:00N 46°12' W 123°23'0 0.0
2017-Dec-04 01:30N 46°12' W 123°23'0 0.1
2017-Dec-04 00:58N 46°12' W 123°23'0 0.0
2017-Dec-04 00:28N 46°12' W 123°23'0 0.0
2017-Dec-03 23:58N 46°12' W 123°23'0 0.0
2017-Dec-03 23:28N 46°12' W 123°23'0 0.1
2017-Dec-03 22:58N 46°12' W 123°23'0 0.0
2017-Dec-03 22:05N 46°12' W 123°23'0 0.3
2017-Dec-03 21:56N 46°12' W 123°23'0 0.1
2017-Dec-03 21:28N 46°12' W 123°23'0 0.1
2017-Dec-03 21:01N 46°12' W 123°23'0 0.0
2017-Dec-03 20:28N 46°12' W 123°23'0 0.1
2017-Dec-03 19:58N 46°12' W 123°23'0 0.0
2017-Dec-03 19:25N 46°12' W 123°23'0 0.0
2017-Dec-03 18:58N 46°12' W 123°23'0 0.0
2017-Dec-03 18:28N 46°12' W 123°23'0 0.0
2017-Dec-03 17:57N 46°12' W 123°23'0 0.0
2017-Dec-03 17:29N 46°12' W 123°23'0 0.0
2017-Dec-03 16:59N 46°12' W 123°23'0 0.1
2017-Dec-03 16:28N 46°12' W 123°23'0 0.0
2017-Dec-03 16:01N 46°12' W 123°23'0 0.1
2017-Dec-03 15:28N 46°12' W 123°23'0 0.0
2017-Dec-03 15:00N 46°12' W 123°23'0 0.0
2017-Dec-03 14:30N 46°12' W 123°23'0 0.0
2017-Dec-03 14:00N 46°12' W 123°23'0 0.0
2017-Dec-03 13:30N 46°12' W 123°23'0 0.0
2017-Dec-03 13:00N 46°12' W 123°23'0 0.1
2017-Dec-03 12:30N 46°12' W 123°23'0 0.0
2017-Dec-03 11:59N 46°12' W 123°23'0 0.0
2017-Dec-03 11:29N 46°12' W 123°23'0 0.1
2017-Dec-03 10:56N 46°12' W 123°23'0 0.0
2017-Dec-03 10:29N 46°12' W 123°23'0 0.1
2017-Dec-03 09:59N 46°12' W 123°23'0 0.0
2017-Dec-03 09:25N 46°12' W 123°23'0 0.0
2017-Dec-03 08:55N 46°12' W 123°23'0 0.0
2017-Dec-03 08:28N 46°12' W 123°23'0 0.1
2017-Dec-03 08:00N 46°12' W 123°23'0 0.1
2017-Dec-03 07:30N 46°12' W 123°23'0 0.0
2017-Dec-03 06:57N 46°12' W 123°23'0 0.0
2017-Dec-03 06:30N 46°12' W 123°23'0 0.0
2017-Dec-03 05:57N 46°12' W 123°23'0 0.0
2017-Dec-03 05:27N 46°12' W 123°23'0 0.0
2017-Dec-03 04:55N 46°12' W 123°23'0 0.0
2017-Dec-03 04:28N 46°12' W 123°23'0 0.0
2017-Dec-03 03:58N 46°12' W 123°23'0 0.0
2017-Dec-03 03:28N 46°12' W 123°23'0 0.0
2017-Dec-03 02:57N 46°12' W 123°23'0 0.0
2017-Dec-03 02:27N 46°12' W 123°23'0 0.0
2017-Dec-03 02:00N 46°12' W 123°23'0 0.0
2017-Dec-03 01:28N 46°12' W 123°23'0 0.0
2017-Dec-03 01:00N 46°12' W 123°23'0 0.0
2017-Dec-03 00:23N 46°12' W 123°23'0 0.0
2017-Dec-02 23:57N 46°12' W 123°23'0 0.0
2017-Dec-02 23:30N 46°12' W 123°23'0 0.0
2017-Dec-02 23:00N 46°12' W 123°23'0 0.0
2017-Dec-02 22:30N 46°12' W 123°23'0 0.1
2017-Dec-02 21:57N 46°12' W 123°23'0 0.1
2017-Dec-02 21:30N 46°12' W 123°23'0 0.0
2017-Dec-02 20:59N 46°12' W 123°23'0 0.0
2017-Dec-02 20:29N 46°12' W 123°23'0 0.0
2017-Dec-02 19:55N 46°12' W 123°23'0 0.1
2017-Dec-02 19:15N 46°12' W 123°23'0 0.0
2017-Dec-02 19:00N 46°12' W 123°23'0 0.0
2017-Dec-02 18:26N 46°12' W 123°23'0 0.0
2017-Dec-02 18:01N 46°12' W 123°23'0 0.0
2017-Dec-02 17:28N 46°12' W 123°23'0 0.0
2017-Dec-02 16:55N 46°12' W 123°23'0 0.0
2017-Dec-02 16:25N 46°12' W 123°23'0 0.1
2017-Dec-02 16:01N 46°12' W 123°23'0 0.1
2017-Dec-02 15:30N 46°12' W 123°23'0 0.0
2017-Dec-02 14:57N 46°12' W 123°23'0 0.0
2017-Dec-02 14:27N 46°12' W 123°23'0 0.0
2017-Dec-02 13:56N 46°12' W 123°23'0 0.0
2017-Dec-02 13:29N 46°12' W 123°23'0 0.0
2017-Dec-02 12:57N 46°12' W 123°23'0 0.1
2017-Dec-02 12:27N 46°12' W 123°23'0 0.1
2017-Dec-02 12:00N 46°12' W 123°23'0 0.0
2017-Dec-02 11:30N 46°12' W 123°23'0 0.0
2017-Dec-02 11:00N 46°12' W 123°23'0 0.0
2017-Dec-02 10:28N 46°12' W 123°23'0 0.1
2017-Dec-02 09:55N 46°12' W 123°23'0 0.0
2017-Dec-02 09:26N 46°12' W 123°23'0 0.0
2017-Dec-02 08:51N 46°12' W 123°23'0 0.0
2017-Dec-02 07:59N 46°12' W 123°23'0 0.0
2017-Dec-02 07:29N 46°12' W 123°23'0 0.1
2017-Dec-02 06:59N 46°12' W 123°23'0 0.1
2017-Dec-02 06:29N 46°12' W 123°23'0 0.0
2017-Dec-02 06:00N 46°12' W 123°23'0 0.0
2017-Dec-02 05:30N 46°12' W 123°23'0 0.0
2017-Dec-02 05:00N 46°12' W 123°23'0 0.0
2017-Dec-02 04:29N 46°12' W 123°23'0 0.0
2017-Dec-02 03:59N 46°12' W 123°23'0 0.0
2017-Dec-02 03:28N 46°12' W 123°23'0 0.1
2017-Dec-02 02:55N 46°12' W 123°23'0 0.1
2017-Dec-02 02:28N 46°12' W 123°23'0 0.0
2017-Dec-02 01:58N 46°12' W 123°23'0 0.0
2017-Dec-02 01:28N 46°12' W 123°23'0 0.1
2017-Dec-02 00:58N 46°12' W 123°23'0 0.1
2017-Dec-02 00:28N 46°12' W 123°23'0 0.0
2017-Dec-01 23:58N 46°12' W 123°23'0 0.0
2017-Dec-01 23:30N 46°12' W 123°23'0 0.0
2017-Dec-01 23:00N 46°12' W 123°23'0 0.1
2017-Dec-01 22:30N 46°12' W 123°23'0 0.1
2017-Dec-01 21:59N 46°12' W 123°23'0 0.1
2017-Dec-01 21:26N 46°12' W 123°23'0 0.1
2017-Dec-01 21:00N 46°12' W 123°23'0 0.1
2017-Dec-01 20:27N 46°12' W 123°23'0 0.0
2017-Dec-01 19:59N 46°12' W 123°23'0 0.0
2017-Dec-01 19:29N 46°12' W 123°23'0 0.0
2017-Dec-01 18:56N 46°12' W 123°23'0 0.0
2017-Dec-01 18:29N 46°12' W 123°23'0 0.0
2017-Dec-01 17:59N 46°12' W 123°23'0 0.1
2017-Dec-01 17:30N 46°12' W 123°23'  
Track history (hours):
 
Tides and Currents Weather Stations Pressure Air Temp Water Temp Dewpoint Dewpoint Depression Visibility Wind Speed Wind Dir Waves Ship Positions

Edward Brusco

Owner: Brusco Tug & Barge, Inc., Longview, WA. More information available from US FCC via Universal Licensing System and Coast Guard Vessel Documentation Center.

Last reported at 2017-Dec-11 17:00 UTC. Time now 2017-Dec-14 00:18 UTC.
Position N 46°35' W 124°16'.

Length 37 m; draft 10.6 m.

Type: Tow > 200 m length. MMSI: 367002170.

Date/timePositionNaut miles runAvg speedWind from/ knotsBaromVisibWave heightAir tempDewpointWater temp
2017-Dec-11 17:00N 46°35' W 124°16'510.8
2017-Dec-11 16:31N 46°29' W 124°15'510.6
2017-Dec-11 16:01N 46°24' W 124°13'510.3
2017-Dec-11 15:31N 46°19' W 124°12'510.0
2017-Dec-11 15:01N 46°14' W 124°10'5 9.5
2017-Dec-11 14:30N 46°15' W 124°03'4 7.1
2017-Dec-11 14:01N 46°14' W 123°59'3 6.5
2017-Dec-11 13:30N 46°12' W 123°55'3 6.6
2017-Dec-11 13:00N 46°12' W 123°50'4 7.1
2017-Dec-11 12:31N 46°13' W 123°46'3 6.8
2017-Dec-11 12:01N 46°15' W 123°42'4 7.2
2017-Dec-11 11:30N 46°15' W 123°36'4 7.4
2017-Dec-11 11:01N 46°16' W 123°31'4 7.6
2017-Dec-11 10:30N 46°15' W 123°26'4 8.7
2017-Dec-11 10:00N 46°10' W 123°25'4 8.6
2017-Dec-11 09:31N 46°09' W 123°19'5 9.5
2017-Dec-11 09:00N 46°10' W 123°13'5 8.6
2017-Dec-11 08:26N 46°10' W 123°06'4 9.3
2017-Dec-11 08:01N 46°08' W 123°01'2 4.3
2017-Dec-11 07:30N 46°07' W 122°58'0 0.1
2017-Dec-11 07:00N 46°07' W 122°58'2 5.0
2017-Dec-11 06:30N 46°05' W 122°56'0 0.1
2017-Dec-11 06:00N 46°05' W 122°56'2 3.2
2017-Dec-11 05:30N 46°06' W 122°58'4 7.3
2017-Dec-11 05:00N 46°08' W 123°02'4 7.2
2017-Dec-11 04:31N 46°10' W 123°06'3 6.9
2017-Dec-11 04:00N 46°11' W 123°11'4 7.5
2017-Dec-11 03:30N 46°09' W 123°16'4 7.0
2017-Dec-11 03:00N 46°09' W 123°21'3 6.8
2017-Dec-11 02:30N 46°10' W 123°25'3 6.7
2017-Dec-11 02:00N 46°14' W 123°26'3 6.9
2017-Dec-11 01:30N 46°16' W 123°29'4 7.7
2017-Dec-11 01:00N 46°15' W 123°34'4 8.2
2017-Dec-11 00:28N 46°15' W 123°40'4 8.6
2017-Dec-11 00:00N 46°13' W 123°45'4 8.5
2017-Dec-10 23:30N 46°12' W 123°51'4 7.5
2017-Dec-10 23:01N 46°12' W 123°56'4 7.6
2017-Dec-10 22:30N 46°15' W 124°00'3 5.8
2017-Dec-10 22:01N 46°15' W 124°05'3 6.5
2017-Dec-10 21:30N 46°13' W 124°08'3 5.5
2017-Dec-10 21:00N 46°10' W 124°10'4 8.1
2017-Dec-10 20:30N 46°06' W 124°10'4 8.4
2017-Dec-10 20:00N 46°02' W 124°09'6 8.3
2017-Dec-10 19:15N 45°56' W 124°08'2 8.6
2017-Dec-10 19:00N 45°54' W 124°07'4 8.5
2017-Dec-10 18:30N 45°50' W 124°06'4 8.6
2017-Dec-10 18:01N 45°46' W 124°05'4 8.7
2017-Dec-10 17:30N 45°41' W 124°05'4 8.7
2017-Dec-10 17:00N 45°37' W 124°04'4 8.4
2017-Dec-10 16:30N 45°33' W 124°04'4 8.6
2017-Dec-10 16:00N 45°28' W 124°04'5 9.1
2017-Dec-10 15:30N 45°24' W 124°04'5 8.8
2017-Dec-10 14:56N 45°19' W 124°05'4 9.0
2017-Dec-10 14:30N 45°15' W 124°05'4 8.8
2017-Dec-10 14:00N 45°11' W 124°05'6 8.6
2017-Dec-10 13:22N 45°05' W 124°05'5 9.0
2017-Dec-10 12:48N 45°00' W 124°07'3 8.9
2017-Dec-10 12:27N 44°57' W 124°08'4 8.8
2017-Dec-10 11:59N 44°53' W 124°09'5 8.6
2017-Dec-10 11:27N 44°49' W 124°11'14 0.3
2017-Dec-08 17:02N 45°02' W 124°08'1 6.9
2017-Dec-08 16:51N 45°03' W 124°07'3 7.1
2017-Dec-08 16:29N 45°06' W 124°06'3 6.9
2017-Dec-08 16:00N 45°09' W 124°06'3 6.7
2017-Dec-08 15:30N 45°12' W 124°06'3 5.9
2017-Dec-08 15:00N 45°15' W 124°05'3 5.4
2017-Dec-08 14:30N 45°18' W 124°05'3 5.6
2017-Dec-08 14:00N 45°21' W 124°05'3 6.2
2017-Dec-08 13:30N 45°24' W 124°05'4 7.8
2017-Dec-08 13:00N 45°28' W 124°05'4 7.8
2017-Dec-08 12:31N 45°32' W 124°05'4 7.4
2017-Dec-08 12:01N 45°35' W 124°05'4 7.1
2017-Dec-08 11:30N 45°39' W 124°05'3 6.9
2017-Dec-08 11:01N 45°42' W 124°06'4 7.1
2017-Dec-08 10:30N 45°46' W 124°06'4 7.4
2017-Dec-08 10:00N 45°50' W 124°07'4 7.5
2017-Dec-08 09:30N 45°53' W 124°07'6 7.7
2017-Dec-08 08:46N 45°59' W 124°08'2 7.6
2017-Dec-08 08:27N 46°01' W 124°09'3 7.5
2017-Dec-08 08:01N 46°05' W 124°09'4 7.1
2017-Dec-08 07:31N 46°08' W 124°10'4 7.2
2017-Dec-08 07:01N 46°12' W 124°09'4 8.7
2017-Dec-08 06:30N 46°15' W 124°05'5 9.7
2017-Dec-08 06:01N 46°14' W 123°59'612.3
2017-Dec-08 05:30N 46°12' W 123°50'713.1
2017-Dec-08 05:00N 46°15' W 123°42'612.7
2017-Dec-08 04:31N 46°15' W 123°33'510.3
2017-Dec-08 04:00N 46°14' W 123°26'611.1
2017-Dec-08 03:30N 46°09' W 123°23'611.2
2017-Dec-08 03:00N 46°10' W 123°15'510.7
2017-Dec-08 02:30N 46°11' W 123°07'510.2
2017-Dec-08 02:00N 46°08' W 123°01'4 8.8
2017-Dec-08 01:30N 46°06' W 122°56'0 0.3
2017-Dec-08 01:00N 46°06' W 122°56'0 0.5
2017-Dec-08 00:30N 46°06' W 122°56'0 0.0
2017-Dec-08 00:00N 46°06' W 122°56'0 0.0
2017-Dec-07 23:30N 46°06' W 122°56'0 0.0
2017-Dec-07 23:00N 46°06' W 122°56'2 3.5
2017-Dec-07 22:30N 46°07' W 122°58'510.8
2017-Dec-07 22:00N 46°10' W 123°05'510.1
2017-Dec-07 21:30N 46°11' W 123°12'510.7
2017-Dec-07 21:00N 46°09' W 123°19'5 9.7
2017-Dec-07 20:30N 46°10' W 123°25'2 4.1
2017-Dec-07 20:00N 46°12' W 123°23'0 0.0
2017-Dec-07 19:30N 46°12' W 123°23'0 0.0
2017-Dec-07 18:59N 46°12' W 123°23'0 0.1
2017-Dec-07 18:30N 46°12' W 123°23'0 0.0
2017-Dec-07 17:59N 46°12' W 123°23'0 0.1
2017-Dec-07 17:26N 46°12' W 123°23'0 0.0
2017-Dec-07 17:00N 46°12' W 123°23'0 0.1
2017-Dec-07 16:30N 46°12' W 123°23'0 0.1
2017-Dec-07 16:00N 46°12' W 123°23'0 0.0
2017-Dec-07 15:27N 46°12' W 123°23'0 0.1
2017-Dec-07 14:59N 46°12' W 123°23'0 0.1
2017-Dec-07 14:29N 46°12' W 123°23'0 0.0
2017-Dec-07 13:58N 46°12' W 123°23'0 0.1
2017-Dec-07 13:28N 46°12' W 123°23'0 0.1
2017-Dec-07 12:57N 46°12' W 123°23'0 0.1
2017-Dec-07 12:29N 46°12' W 123°23'0 0.1
2017-Dec-07 11:58N 46°12' W 123°23'0 0.1
2017-Dec-07 11:25N 46°12' W 123°23'0 0.0
2017-Dec-07 11:00N 46°12' W 123°23'0 0.1
2017-Dec-07 10:30N 46°12' W 123°23'0 0.1
2017-Dec-07 10:00N 46°12' W 123°23'0 0.1
2017-Dec-07 09:30N 46°12' W 123°23'0 0.1
2017-Dec-07 09:00N 46°12' W 123°23'0 0.0
2017-Dec-07 08:28N 46°12' W 123°23'0 0.1
2017-Dec-07 07:58N 46°12' W 123°23'0 0.1
2017-Dec-07 07:28N 46°12' W 123°23'0 0.0
2017-Dec-07 06:58N 46°12' W 123°23'0 0.0
2017-Dec-07 06:28N 46°12' W 123°23'0 0.0
2017-Dec-07 05:56N 46°12' W 123°23'0 0.0
2017-Dec-07 05:28N 46°12' W 123°23'0 0.0
2017-Dec-07 04:55N 46°12' W 123°23'0 0.1
2017-Dec-07 04:27N 46°12' W 123°23'0 0.1
2017-Dec-07 04:00N 46°12' W 123°23'0 0.0
2017-Dec-07 03:24N 46°12' W 123°23'0 0.1
2017-Dec-07 02:37N 46°12' W 123°23'0 0.3
2017-Dec-07 02:28N 46°12' W 123°23'0 0.0
2017-Dec-07 01:55N 46°12' W 123°23'0 0.0
2017-Dec-07 01:28N 46°12' W 123°23'0 0.0
2017-Dec-07 00:58N 46°12' W 123°23'0 0.0
2017-Dec-07 00:30N 46°12' W 123°23'0 0.0
2017-Dec-06 23:59N 46°12' W 123°23'0 0.0
2017-Dec-06 23:30N 46°12' W 123°23'0 0.0
2017-Dec-06 22:58N 46°12' W 123°23'0 0.1
2017-Dec-06 22:23N 46°12' W 123°23'0 0.1
2017-Dec-06 21:57N 46°12' W 123°23'0 0.0
2017-Dec-06 21:27N 46°12' W 123°23'0 0.0
2017-Dec-06 21:00N 46°12' W 123°23'  
2017-Dec-04 10:23N 46°12' W 123°23'0 0.0
2017-Dec-04 09:55N 46°12' W 123°23'0 0.0
2017-Dec-04 09:28N 46°12' W 123°23'0 0.1
2017-Dec-04 08:49N 46°12' W 123°23'0 0.0
2017-Dec-04 08:28N 46°12' W 123°23'0 0.1
2017-Dec-04 07:49N 46°12' W 123°23'0 0.0
2017-Dec-04 07:26N 46°12' W 123°23'0 0.0
2017-Dec-04 06:59N 46°12' W 123°23'0 0.0
2017-Dec-04 06:28N 46°12' W 123°23'0 0.0
2017-Dec-04 05:59N 46°12' W 123°23'0 0.0
2017-Dec-04 05:30N 46°12' W 123°23'0 0.1
2017-Dec-04 04:54N 46°12' W 123°23'0 0.1
2017-Dec-04 04:28N 46°12' W 123°23'0 0.0
2017-Dec-04 04:00N 46°12' W 123°23'0 0.0
2017-Dec-04 03:30N 46°12' W 123°23'0 0.1
2017-Dec-04 02:59N 46°12' W 123°23'0 0.0
2017-Dec-04 02:30N 46°12' W 123°23'0 0.1
2017-Dec-04 02:00N 46°12' W 123°23'0 0.0
2017-Dec-04 01:30N 46°12' W 123°23'0 0.1
2017-Dec-04 00:58N 46°12' W 123°23'0 0.0
2017-Dec-04 00:28N 46°12' W 123°23'0 0.0
2017-Dec-03 23:58N 46°12' W 123°23'0 0.0
2017-Dec-03 23:28N 46°12' W 123°23'0 0.1
2017-Dec-03 22:58N 46°12' W 123°23'0 0.0
2017-Dec-03 22:05N 46°12' W 123°23'0 0.3
2017-Dec-03 21:56N 46°12' W 123°23'0 0.1
2017-Dec-03 21:28N 46°12' W 123°23'0 0.1
2017-Dec-03 21:01N 46°12' W 123°23'0 0.0
2017-Dec-03 20:28N 46°12' W 123°23'0 0.1
2017-Dec-03 19:58N 46°12' W 123°23'0 0.0
2017-Dec-03 19:25N 46°12' W 123°23'0 0.0
2017-Dec-03 18:58N 46°12' W 123°23'0 0.0
2017-Dec-03 18:28N 46°12' W 123°23'0 0.0
2017-Dec-03 17:57N 46°12' W 123°23'0 0.0
2017-Dec-03 17:29N 46°12' W 123°23'0 0.0
2017-Dec-03 16:59N 46°12' W 123°23'0 0.1
2017-Dec-03 16:28N 46°12' W 123°23'0 0.0
2017-Dec-03 16:01N 46°12' W 123°23'0 0.1
2017-Dec-03 15:28N 46°12' W 123°23'0 0.0
2017-Dec-03 15:00N 46°12' W 123°23'0 0.0
2017-Dec-03 14:30N 46°12' W 123°23'0 0.0
2017-Dec-03 14:00N 46°12' W 123°23'0 0.0
2017-Dec-03 13:30N 46°12' W 123°23'0 0.0
2017-Dec-03 13:00N 46°12' W 123°23'0 0.1
2017-Dec-03 12:30N 46°12' W 123°23'0 0.0
2017-Dec-03 11:59N 46°12' W 123°23'0 0.0
2017-Dec-03 11:29N 46°12' W 123°23'0 0.1
2017-Dec-03 10:56N 46°12' W 123°23'0 0.0
2017-Dec-03 10:29N 46°12' W 123°23'0 0.1
2017-Dec-03 09:59N 46°12' W 123°23'0 0.0
2017-Dec-03 09:25N 46°12' W 123°23'0 0.0
2017-Dec-03 08:55N 46°12' W 123°23'0 0.0
2017-Dec-03 08:28N 46°12' W 123°23'0 0.1
2017-Dec-03 08:00N 46°12' W 123°23'0 0.1
2017-Dec-03 07:30N 46°12' W 123°23'0 0.0
2017-Dec-03 06:57N 46°12' W 123°23'0 0.0
2017-Dec-03 06:30N 46°12' W 123°23'0 0.0
2017-Dec-03 05:57N 46°12' W 123°23'0 0.0
2017-Dec-03 05:27N 46°12' W 123°23'0 0.0
2017-Dec-03 04:55N 46°12' W 123°23'0 0.0
2017-Dec-03 04:28N 46°12' W 123°23'0 0.0
2017-Dec-03 03:58N 46°12' W 123°23'0 0.0
2017-Dec-03 03:28N 46°12' W 123°23'0 0.0
2017-Dec-03 02:57N 46°12' W 123°23'0 0.0
2017-Dec-03 02:27N 46°12' W 123°23'0 0.0
2017-Dec-03 02:00N 46°12' W 123°23'0 0.0
2017-Dec-03 01:28N 46°12' W 123°23'0 0.0
2017-Dec-03 01:00N 46°12' W 123°23'0 0.0
2017-Dec-03 00:23N 46°12' W 123°23'0 0.0
2017-Dec-02 23:57N 46°12' W 123°23'0 0.0
2017-Dec-02 23:30N 46°12' W 123°23'0 0.0
2017-Dec-02 23:00N 46°12' W 123°23'0 0.0
2017-Dec-02 22:30N 46°12' W 123°23'0 0.1
2017-Dec-02 21:57N 46°12' W 123°23'0 0.1
2017-Dec-02 21:30N 46°12' W 123°23'0 0.0
2017-Dec-02 20:59N 46°12' W 123°23'0 0.0
2017-Dec-02 20:29N 46°12' W 123°23'0 0.0
2017-Dec-02 19:55N 46°12' W 123°23'0 0.1
2017-Dec-02 19:15N 46°12' W 123°23'0 0.0
2017-Dec-02 19:00N 46°12' W 123°23'0 0.0
2017-Dec-02 18:26N 46°12' W 123°23'0 0.0
2017-Dec-02 18:01N 46°12' W 123°23'0 0.0
2017-Dec-02 17:28N 46°12' W 123°23'0 0.0
2017-Dec-02 16:55N 46°12' W 123°23'0 0.0
2017-Dec-02 16:25N 46°12' W 123°23'0 0.1
2017-Dec-02 16:01N 46°12' W 123°23'0 0.1
2017-Dec-02 15:30N 46°12' W 123°23'0 0.0
2017-Dec-02 14:57N 46°12' W 123°23'0 0.0
2017-Dec-02 14:27N 46°12' W 123°23'0 0.0
2017-Dec-02 13:56N 46°12' W 123°23'0 0.0
2017-Dec-02 13:29N 46°12' W 123°23'0 0.0
2017-Dec-02 12:57N 46°12' W 123°23'0 0.1
2017-Dec-02 12:27N 46°12' W 123°23'0 0.1
2017-Dec-02 12:00N 46°12' W 123°23'0 0.0
2017-Dec-02 11:30N 46°12' W 123°23'0 0.0
2017-Dec-02 11:00N 46°12' W 123°23'0 0.0
2017-Dec-02 10:28N 46°12' W 123°23'0 0.1
2017-Dec-02 09:55N 46°12' W 123°23'0 0.0
2017-Dec-02 09:26N 46°12' W 123°23'0 0.0
2017-Dec-02 08:51N 46°12' W 123°23'0 0.0
2017-Dec-02 07:59N 46°12' W 123°23'0 0.0
2017-Dec-02 07:29N 46°12' W 123°23'0 0.1
2017-Dec-02 06:59N 46°12' W 123°23'0 0.1
2017-Dec-02 06:29N 46°12' W 123°23'0 0.0
2017-Dec-02 06:00N 46°12' W 123°23'0 0.0
2017-Dec-02 05:30N 46°12' W 123°23'0 0.0
2017-Dec-02 05:00N 46°12' W 123°23'0 0.0
2017-Dec-02 04:29N 46°12' W 123°23'0 0.0
2017-Dec-02 03:59N 46°12' W 123°23'0 0.0
2017-Dec-02 03:28N 46°12' W 123°23'0 0.1
2017-Dec-02 02:55N 46°12' W 123°23'0 0.1
2017-Dec-02 02:28N 46°12' W 123°23'0 0.0
2017-Dec-02 01:58N 46°12' W 123°23'0 0.0
2017-Dec-02 01:28N 46°12' W 123°23'0 0.1
2017-Dec-02 00:58N 46°12' W 123°23'0 0.1
2017-Dec-02 00:28N 46°12' W 123°23'0 0.0
2017-Dec-01 23:58N 46°12' W 123°23'0 0.0
2017-Dec-01 23:30N 46°12' W 123°23'0 0.0
2017-Dec-01 23:00N 46°12' W 123°23'0 0.1
2017-Dec-01 22:30N 46°12' W 123°23'0 0.1
2017-Dec-01 21:59N 46°12' W 123°23'0 0.1
2017-Dec-01 21:26N 46°12' W 123°23'0 0.1
2017-Dec-01 21:00N 46°12' W 123°23'0 0.1
2017-Dec-01 20:27N 46°12' W 123°23'0 0.0
2017-Dec-01 19:59N 46°12' W 123°23'0 0.0
2017-Dec-01 19:29N 46°12' W 123°23'0 0.0
2017-Dec-01 18:56N 46°12' W 123°23'0 0.0
2017-Dec-01 18:29N 46°12' W 123°23'0 0.0
2017-Dec-01 17:59N 46°12' W 123°23'0 0.1
2017-Dec-01 17:30N 46°12' W 123°23'  

Dump ship's entire track history